Cross River, New York
Current Conditions -  °F | °C
As of 10:53 AM on Friday 31 Oct 2014 (Local Time) from KDXR Reporting Station
Overcast Overcast  
Wind Chill: 47°   Ceiling: 4800
Heat Index: 47°   Visibility: 10mi
Dew Point: 33°   Wind: 3mph
Humidity: 59%   Direction: NA
Pressure: 30.01"   Gusts: NA
Location:  41.26°N, 73.61°W
Report Text: KDXR 311453Z VRB03KT 10SM OVC048 08/01 A3001 RMK AO2 SLP162 T00830006 58006
Loading
Personal Weather Stations






























Interactive Weather Map
Tropical Storm Tracking
New forecast layout! Learn more

10-Day Weather Forecast

Advertisements
Track Severe Weather on mobile